Time;durP1;ratioP1;P1;durP2;ratioP2;P2;SDS_P1;SDS_P2;PMS_P1;PMS_P2;Temp;Humidity;BMP_temperature;BMP_pressure;BME280_temperature;BME280_humidity;BME280_pressure;Samples;Min_cycle;Max_cycle;Signal;HPM_P1;HPM_P2
2022/04/06 00:02:05;;;;;;;0.40;0.40;;;9.80;99.90;;;;;;5094594;28;20028;-63
2022/04/06 00:04:31;;;;;;;0.20;0.20;;;9.80;99.90;;;;;;5094091;28;20050;-63
2022/04/06 00:06:57;;;;;;;0.63;0.20;;;9.80;99.90;;;;;;5094603;28;20081;-62
2022/04/06 00:09:22;;;;;;;0.30;0.30;;;9.80;99.90;;;;;;5093387;28;20148;-63
2022/04/06 00:11:49;;;;;;;1.23;0.43;;;9.80;99.90;;;;;;5094803;28;20380;-63
2022/04/06 00:14:15;;;;;;;0.70;0.55;;;9.80;99.90;;;;;;5094642;28;20059;-63
2022/04/06 00:16:40;;;;;;;0.55;0.50;;;9.80;99.90;;;;;;5093152;28;20055;-62
2022/04/06 00:19:06;;;;;;;0.43;0.43;;;9.70;99.90;;;;;;5094345;28;20173;-62
2022/04/06 00:21:31;;;;;;;0.30;0.30;;;9.80;99.90;;;;;;5093849;28;20024;-63
2022/04/06 00:23:58;;;;;;;0.60;0.40;;;9.80;99.90;;;;;;5092410;28;20039;-63
2022/04/06 00:26:25;;;;;;;0.47;0.40;;;9.80;99.90;;;;;;5094105;28;20028;-62
2022/04/06 00:28:51;;;;;;;0.60;0.50;;;9.80;99.90;;;;;;5093768;28;20020;-62
2022/04/06 00:31:16;;;;;;;0.65;0.52;;;9.80;99.90;;;;;;5092490;28;20024;-62
2022/04/06 00:33:42;;;;;;;0.43;0.40;;;9.90;99.90;;;;;;5093820;28;20032;-62
2022/04/06 00:36:08;;;;;;;3.40;0.50;;;9.90;99.90;;;;;;5092620;28;20028;-62
2022/04/06 00:38:33;;;;;;;1.17;0.68;;;10.00;99.90;;;;;;5093648;28;20089;-62
2022/04/06 00:40:59;;;;;;;1.55;0.38;;;10.10;99.90;;;;;;5093383;28;20026;-62
2022/04/06 00:43:24;;;;;;;0.32;0.32;;;10.10;99.90;;;;;;5093814;28;20057;-62
2022/04/06 00:45:50;;;;;;;0.40;0.40;;;10.00;99.90;;;;;;5092375;28;20028;-62
2022/04/06 00:48:16;;;;;;;0.55;0.50;;;10.00;99.90;;;;;;5093569;28;20513;-62
2022/04/06 00:50:44;;;;;;;0.57;0.40;;;10.10;99.90;;;;;;5092290;28;20028;-62
2022/04/06 00:53:12;;;;;;;2.05;0.30;;;10.10;99.90;;;;;;5093704;28;20070;-63
2022/04/06 00:55:39;;;;;;;0.47;0.47;;;10.10;99.90;;;;;;5093751;28;20043;-62
2022/04/06 00:58:05;;;;;;;0.47;0.47;;;10.20;99.90;;;;;;5093523;28;20024;-62
2022/04/06 01:00:32;;;;;;;1.55;0.57;;;10.20;99.90;;;;;;5093457;28;20024;-62
2022/04/06 01:02:58;;;;;;;0.75;0.70;;;10.20;99.90;;;;;;5093538;28;20035;-63
2022/04/06 01:05:25;;;;;;;0.77;0.32;;;10.20;99.90;;;;;;5093571;28;20028;-62
2022/04/06 01:07:52;;;;;;;1.85;0.50;;;10.30;99.90;;;;;;5109033;28;20510;-62
2022/04/06 01:10:19;;;;;;;2.05;0.50;;;10.30;99.90;;;;;;5094457;28;20039;-62
2022/04/06 01:12:46;;;;;;;1.15;0.70;;;10.40;99.90;;;;;;5097391;28;20028;-62
2022/04/06 01:15:12;;;;;;;0.40;0.40;;;10.40;99.90;;;;;;5095778;28;20440;-62
2022/04/06 01:17:38;;;;;;;1.05;0.70;;;10.40;99.90;;;;;;5095526;28;20119;-62
2022/04/06 01:20:07;;;;;;;0.50;0.50;;;10.40;99.90;;;;;;5095951;28;20055;-62
2022/04/06 01:22:33;;;;;;;0.63;0.60;;;10.50;99.90;;;;;;5096911;28;20027;-62
2022/04/06 01:24:59;;;;;;;1.55;0.70;;;10.50;99.90;;;;;;5096562;28;20454;-62
2022/04/06 01:27:24;;;;;;;1.40;0.60;;;10.40;99.90;;;;;;5097117;28;20524;-62
2022/04/06 01:29:52;;;;;;;0.55;0.52;;;10.40;99.90;;;;;;5096777;28;20031;-62
2022/04/06 01:32:21;;;;;;;1.95;0.70;;;10.40;99.90;;;;;;5096985;28;20364;-62
2022/04/06 01:35:07;;;;;;;0.90;0.90;;;10.50;99.90;;;;;;5095351;28;20501;-62
2022/04/06 01:37:34;;;;;;;0.80;0.80;;;10.50;99.90;;;;;;5096719;28;20028;-62
2022/04/06 01:40:00;;;;;;;1.20;0.70;;;10.50;99.90;;;;;;5096305;28;20107;-62
2022/04/06 01:42:26;;;;;;;0.65;0.60;;;10.50;99.90;;;;;;5096539;28;20099;-62
2022/04/06 01:44:52;;;;;;;0.68;0.57;;;10.60;99.90;;;;;;5096372;28;20031;-62
2022/04/06 01:47:20;;;;;;;2.95;0.80;;;10.60;99.90;;;;;;5095861;28;20082;-62
2022/04/06 01:52:32;;;;;;;1.23;0.70;;;10.60;99.90;;;;;;5096333;28;20311;-62
2022/04/06 01:55:04;;;;;;;0.82;0.50;;;10.60;99.90;;;;;;5096265;28;20118;-62
2022/04/06 01:57:31;;;;;;;1.55;0.60;;;10.60;99.90;;;;;;5095514;28;20020;-62
2022/04/06 01:59:58;;;;;;;0.60;0.60;;;10.70;99.90;;;;;;5096190;28;20024;-62
2022/04/06 02:02:26;;;;;;;0.90;0.70;;;10.70;99.90;;;;;;5096013;28;20061;-62
2022/04/06 02:04:52;;;;;;;1.08;0.70;;;10.70;99.90;;;;;;5096289;28;20514;-62
2022/04/06 02:07:18;;;;;;;1.73;0.50;;;10.70;99.90;;;;;;5096061;28;20040;-62
2022/04/06 02:09:45;;;;;;;0.60;0.60;;;10.80;99.90;;;;;;5095995;28;20020;-62
2022/04/06 02:12:11;;;;;;;1.45;0.60;;;10.70;99.90;;;;;;5096246;28;20127;-62
2022/04/06 02:14:41;;;;;;;0.52;0.52;;;10.80;99.90;;;;;;5094277;28;20032;-62
2022/04/06 02:17:08;;;;;;;0.88;0.88;;;10.70;99.90;;;;;;5096027;28;20111;-62
2022/04/06 02:19:36;;;;;;;0.60;0.60;;;10.70;99.90;;;;;;5094540;28;20047;-62
2022/04/06 02:22:02;;;;;;;0.50;0.50;;;10.80;99.90;;;;;;5094367;28;20055;-62
2022/04/06 02:24:28;;;;;;;0.50;0.50;;;10.70;99.90;;;;;;5095618;28;20074;-62
2022/04/06 02:26:53;;;;;;;0.50;0.50;;;10.70;99.90;;;;;;5096352;28;20032;-62
2022/04/06 02:29:19;;;;;;;1.38;0.30;;;10.80;99.90;;;;;;5095343;28;20150;-62
2022/04/06 02:31:45;;;;;;;0.77;0.55;;;10.80;99.90;;;;;;5095561;28;20024;-62
2022/04/06 02:34:10;;;;;;;0.43;0.40;;;10.80;99.90;;;;;;5095790;28;20032;-62
2022/04/06 02:36:36;;;;;;;0.45;0.40;;;10.70;99.90;;;;;;5094767;28;20097;-62
2022/04/06 02:39:02;;;;;;;1.73;0.68;;;10.70;99.90;;;;;;5095272;28;20442;-62
2022/04/06 02:41:28;;;;;;;0.20;0.20;;;10.70;99.90;;;;;;5095657;28;20032;-62
2022/04/06 02:43:54;;;;;;;1.30;0.28;;;10.70;99.90;;;;;;5095663;28;20416;-62
2022/04/06 02:46:19;;;;;;;0.28;0.28;;;10.70;99.90;;;;;;5095466;28;20071;-62
2022/04/06 02:48:46;;;;;;;0.20;0.20;;;10.70;99.90;;;;;;5095206;28;20059;-62
2022/04/06 02:51:11;;;;;;;0.65;0.25;;;10.70;99.90;;;;;;5094612;28;20422;-62
2022/04/06 02:53:37;;;;;;;0.30;0.20;;;10.80;99.90;;;;;;5093890;28;20020;-62
2022/04/06 02:56:03;;;;;;;0.63;0.30;;;10.80;99.90;;;;;;5095065;28;20040;-62
2022/04/06 02:58:29;;;;;;;0.40;0.40;;;10.80;99.90;;;;;;5094752;28;20380;-62
2022/04/06 03:00:56;;;;;;;0.40;0.20;;;10.90;99.90;;;;;;5093746;28;20020;-62
2022/04/06 03:03:23;;;;;;;0.25;0.25;;;10.90;99.90;;;;;;5095102;28;20107;-62
2022/04/06 03:05:48;;;;;;;1.38;0.30;;;10.90;99.90;;;;;;5094849;28;20042;-62
2022/04/06 03:08:15;;;;;;;0.15;0.15;;;10.90;99.90;;;;;;5094889;28;20451;-62
2022/04/06 03:10:40;;;;;;;1.90;0.65;;;10.90;99.90;;;;;;5094553;28;20452;-62
2022/04/06 03:13:06;;;;;;;1.52;0.52;;;10.90;99.90;;;;;;5094746;28;20054;-62
2022/04/06 03:15:32;;;;;;;0.40;0.40;;;10.90;99.90;;;;;;5094728;28;20023;-62
2022/04/06 03:17:57;;;;;;;0.50;0.50;;;10.90;99.90;;;;;;5094643;28;20052;-62
2022/04/06 03:20:23;;;;;;;0.57;0.57;;;10.90;99.90;;;;;;5094956;28;20024;-62
2022/04/06 03:22:49;;;;;;;0.43;0.43;;;10.90;99.90;;;;;;5094319;28;20028;-62
2022/04/06 03:25:14;;;;;;;0.47;0.45;;;10.90;99.90;;;;;;5093219;28;20024;-62
2022/04/06 03:27:40;;;;;;;0.70;0.50;;;11.00;99.90;;;;;;5093321;28;20127;-62
2022/04/06 03:30:10;;;;;;;0.63;0.63;;;10.90;99.90;;;;;;5093361;28;20055;-62
2022/04/06 03:32:35;;;;;;;0.60;0.47;;;10.90;99.90;;;;;;5092616;28;20032;-62
2022/04/06 03:35:01;;;;;;;0.90;0.88;;;10.90;99.90;;;;;;5094528;28;20020;-62
2022/04/06 03:37:27;;;;;;;0.60;0.60;;;10.90;99.90;;;;;;5094360;28;20110;-62
2022/04/06 03:39:53;;;;;;;0.70;0.70;;;10.90;99.90;;;;;;5094265;28;20050;-62
2022/04/06 03:42:18;;;;;;;2.50;0.68;;;10.90;99.90;;;;;;5094018;28;20031;-62
2022/04/06 03:44:44;;;;;;;0.88;0.88;;;10.80;99.90;;;;;;5093898;28;20075;-62
2022/04/06 03:47:09;;;;;;;4.03;0.82;;;10.70;99.90;;;;;;5094215;28;20028;-62
2022/04/06 03:49:35;;;;;;;0.85;0.70;;;10.70;99.90;;;;;;5092963;28;20024;-62
2022/04/06 03:52:01;;;;;;;0.50;0.50;;;10.60;99.90;;;;;;5094380;28;20139;-62
2022/04/06 03:54:27;;;;;;;0.80;0.60;;;10.60;99.90;;;;;;5094090;28;20028;-62
2022/04/06 03:56:53;;;;;;;0.80;0.80;;;10.50;99.90;;;;;;5093791;28;20496;-62
2022/04/06 03:59:18;;;;;;;0.75;0.57;;;10.50;99.90;;;;;;5094017;28;20103;-62
2022/04/06 04:01:44;;;;;;;0.77;0.77;;;10.60;99.90;;;;;;5093733;28;20035;-62
2022/04/06 04:04:12;;;;;;;0.80;0.80;;;10.50;99.90;;;;;;5093938;28;20028;-62
2022/04/06 04:06:38;;;;;;;0.93;0.93;;;10.50;99.90;;;;;;5094017;28;20032;-62
2022/04/06 04:09:04;;;;;;;2.67;1.00;;;10.50;99.90;;;;;;5093927;28;20035;-62
2022/04/06 04:11:30;;;;;;;1.35;1.20;;;10.50;99.90;;;;;;5093626;28;20468;-62
2022/04/06 04:13:56;;;;;;;1.30;1.10;;;10.40;99.90;;;;;;5093928;28;20028;-62
2022/04/06 04:16:22;;;;;;;1.40;1.30;;;10.30;99.90;;;;;;5094147;28;20368;-62
2022/04/06 04:18:48;;;;;;;1.20;1.10;;;10.30;99.90;;;;;;5094040;28;20123;-62
2022/04/06 04:21:32;;;;;;;1.90;1.35;;;10.30;99.90;;;;;;5092553;28;20024;-62
2022/04/06 04:24:05;;;;;;;1.63;1.52;;;10.20;99.90;;;;;;5093692;28;20028;-63
2022/04/06 04:26:31;;;;;;;1.10;0.90;;;10.10;99.90;;;;;;5093820;28;20035;-62
2022/04/06 04:28:57;;;;;;;2.25;1.60;;;10.00;99.90;;;;;;5092475;28;20490;-62
2022/04/06 04:31:23;;;;;;;2.13;1.20;;;10.10;99.90;;;;;;5093742;28;20119;-62
2022/04/06 04:34:08;;;;;;;1.42;1.33;;;10.00;99.90;;;;;;5093813;28;20028;-62
2022/04/06 04:36:34;;;;;;;1.75;1.10;;;10.00;99.90;;;;;;5092848;28;20462;-63
2022/04/06 04:39:01;;;;;;;1.13;1.10;;;9.90;99.90;;;;;;5093345;28;20461;-62
2022/04/06 04:41:26;;;;;;;1.20;1.10;;;9.90;99.90;;;;;;5093910;28;20050;-63
2022/04/06 04:43:52;;;;;;;1.40;1.30;;;9.80;99.90;;;;;;5092306;28;20024;-62
2022/04/06 04:46:19;;;;;;;1.50;1.40;;;9.80;99.90;;;;;;5095478;28;20086;-62
2022/04/06 04:48:45;;;;;;;2.05;1.23;;;9.80;99.90;;;;;;5097542;28;20031;-63
2022/04/06 04:51:14;;;;;;;1.17;1.08;;;9.80;99.90;;;;;;5097538;28;20024;-62
2022/04/06 04:53:41;;;;;;;1.70;1.60;;;9.70;99.90;;;;;;5097741;28;20053;-62
2022/04/06 04:56:07;;;;;;;1.20;1.10;;;9.60;99.90;;;;;;5097484;28;20020;-62
2022/04/06 04:58:33;;;;;;;1.80;1.30;;;9.60;99.90;;;;;;5097114;28;20067;-62
2022/04/06 05:00:59;;;;;;;1.38;1.30;;;9.60;99.90;;;;;;5097664;28;20095;-62
2022/04/06 05:03:24;;;;;;;1.63;1.25;;;9.70;99.90;;;;;;5096202;28;20064;-62
2022/04/06 05:05:53;;;;;;;1.35;1.25;;;9.70;99.90;;;;;;5097210;28;20031;-62
2022/04/06 05:08:19;;;;;;;4.97;1.33;;;9.70;99.90;;;;;;5097346;28;20028;-62
2022/04/06 05:10:45;;;;;;;2.58;1.55;;;9.90;99.90;;;;;;5097167;28;20042;-62
2022/04/06 05:13:13;;;;;;;1.25;1.15;;;10.00;99.90;;;;;;5097084;28;20024;-62
2022/04/06 05:15:39;;;;;;;1.73;1.63;;;10.10;99.90;;;;;;5097007;28;20063;-62
2022/04/06 05:18:05;;;;;;;2.10;1.67;;;10.20;99.90;;;;;;5096733;28;20132;-62
2022/04/06 05:20:31;;;;;;;1.67;1.15;;;10.30;99.90;;;;;;5097014;28;20024;-62
2022/04/06 05:26:18;;;;;;;1.70;1.60;;;10.50;99.90;;;;;;5096886;28;20587;-62
2022/04/06 05:28:44;;;;;;;2.05;1.40;;;10.70;99.90;;;;;;5097055;28;20110;-63
2022/04/06 05:34:31;;;;;;;1.40;1.30;;;11.00;99.90;;;;;;5096777;28;20023;-63
2022/04/06 05:36:57;;;;;;;1.35;1.00;;;11.10;99.90;;;;;;5096655;28;20028;-63
2022/04/06 05:39:22;;;;;;;3.80;1.20;;;11.20;99.90;;;;;;5095235;28;20460;-62
2022/04/06 05:45:11;;;;;;;2.28;1.55;;;11.40;99.90;;;;;;5096540;28;20499;-63
2022/04/06 05:47:37;;;;;;;1.85;1.40;;;11.60;99.90;;;;;;5095137;28;20437;-63
2022/04/06 05:53:25;;;;;;;1.95;0.90;;;11.90;99.90;;;;;;5096321;28;20069;-62
2022/04/06 05:59:12;;;;;;;2.75;0.98;;;12.30;99.90;;;;;;5096298;28;20019;-62
2022/04/06 06:01:38;;;;;;;2.53;1.00;;;12.40;99.90;;;;;;5096059;28;20036;-62
2022/04/06 06:04:03;;;;;;;0.82;0.70;;;12.40;99.90;;;;;;5096001;28;20075;-62
2022/04/06 06:06:29;;;;;;;0.85;0.80;;;12.30;99.90;;;;;;5094578;28;20036;-62
2022/04/06 06:12:16;;;;;;;0.50;0.40;;;12.50;99.90;;;;;;5095885;28;20061;-62
2022/04/06 06:14:42;;;;;;;1.48;0.77;;;12.70;99.90;;;;;;5095913;28;20439;-62
2022/04/06 06:20:30;;;;;;;1.58;0.70;;;13.00;99.90;;;;;;5083730;28;20093;-62
2022/04/06 06:22:55;;;;;;;0.50;0.50;;;13.20;99.90;;;;;;5095433;28;20032;-62
2022/04/06 06:25:21;;;;;;;1.25;0.60;;;13.40;99.90;;;;;;5094192;28;20028;-62
2022/04/06 06:27:47;;;;;;;0.85;0.40;;;13.50;99.90;;;;;;5095472;28;20417;-62
2022/04/06 06:30:13;;;;;;;0.80;0.47;;;13.70;99.90;;;;;;5094227;28;20056;-59
2022/04/06 06:36:01;;;;;;;0.60;0.38;;;14.20;99.90;;;;;;5095501;28;20491;-62
2022/04/06 06:41:49;;;;;;;0.57;0.40;;;14.50;99.90;;;;;;5095345;28;20046;-62
2022/04/06 06:44:14;;;;;;;0.50;0.20;;;14.50;99.90;;;;;;5095301;28;20424;-60
2022/04/06 06:50:03;;;;;;;0.85;0.38;;;15.10;99.90;;;;;;5095184;28;20069;-60
2022/04/06 06:52:28;;;;;;;0.73;0.38;;;15.40;99.90;;;;;;5095020;28;20032;-60
2022/04/06 06:54:54;;;;;;;0.20;0.20;;;15.30;99.90;;;;;;5095324;28;20030;-60
2022/04/06 06:57:20;;;;;;;0.65;0.30;;;15.30;99.90;;;;;;5094759;28;20055;-59
2022/04/06 06:59:46;;;;;;;0.30;0.20;;;15.50;99.90;;;;;;5094678;28;20511;-60
2022/04/06 07:02:11;;;;;;;1.65;0.30;;;15.80;99.90;;;;;;5093569;28;20066;-60
2022/04/06 07:04:37;;;;;;;0.32;0.32;;;15.60;99.90;;;;;;5094555;28;20387;-59
2022/04/06 07:07:03;;;;;;;0.68;0.22;;;15.40;99.90;;;;;;5092795;28;20028;-60
2022/04/06 07:09:29;;;;;;;0.35;0.32;;;15.40;99.90;;;;;;5094363;28;20028;-60
2022/04/06 07:11:55;;;;;;;0.65;0.20;;;15.60;99.90;;;;;;5094565;28;20078;-60
2022/04/06 07:14:20;;;;;;;3.63;0.40;;;15.90;99.90;;;;;;5094569;28;20024;-60
2022/04/06 07:16:47;;;;;;;5.38;0.80;;;16.20;99.90;;;;;;5094461;28;20020;-60
2022/04/06 07:19:12;;;;;;;1.10;0.20;;;16.50;99.90;;;;;;5093323;28;20092;-60
2022/04/06 07:21:38;;;;;;;3.67;0.38;;;16.60;99.90;;;;;;5094116;28;20519;-60
2022/04/06 07:24:04;;;;;;;1.27;0.22;;;16.50;99.90;;;;;;5094304;28;20058;-60
2022/04/06 07:26:30;;;;;;;0.20;0.20;;;16.50;99.90;;;;;;5093917;28;20487;-60
2022/04/06 07:28:55;;;;;;;0.60;0.57;;;16.60;99.90;;;;;;5094213;28;20039;-60
2022/04/06 07:31:21;;;;;;;3.80;0.70;;;16.70;99.90;;;;;;5094226;28;20028;-60
2022/04/06 07:33:47;;;;;;;0.93;0.25;;;17.10;99.90;;;;;;5092911;28;20028;-60
2022/04/06 07:36:17;;;;;;;2.00;0.20;;;17.30;98.70;;;;;;5094421;28;20058;-60
2022/04/06 07:38:43;;;;;;;2.00;0.25;;;17.50;98.50;;;;;;5092885;28;20048;-60
2022/04/06 07:41:27;;;;;;;0.17;0.17;;;17.70;98.30;;;;;;5094107;28;20067;-61
2022/04/06 07:43:53;;;;;;;1.65;0.25;;;17.70;97.20;;;;;;5093241;28;20035;-60
2022/04/06 07:46:18;;;;;;;0.95;0.30;;;17.20;98.50;;;;;;5093950;28;20422;-60
2022/04/06 07:48:44;;;;;;;0.20;0.10;;;16.70;99.50;;;;;;5094024;28;20024;-60
2022/04/06 07:51:10;;;;;;;1.55;0.20;;;16.30;99.90;;;;;;5092682;28;20489;-60
2022/04/06 07:53:35;;;;;;;0.52;0.52;;;16.20;99.90;;;;;;5093912;28;20575;-59
2022/04/06 07:56:01;;;;;;;0.25;0.25;;;16.10;99.90;;;;;;5093771;28;20028;-61
2022/04/06 07:58:27;;;;;;;0.32;0.15;;;15.80;99.90;;;;;;5093780;28;20136;-59
2022/04/06 08:00:53;;;;;;;0.30;0.10;;;15.70;99.90;;;;;;5109432;28;20043;-60
2022/04/06 08:03:18;;;;;;;3.60;0.20;;;15.90;99.90;;;;;;5092191;28;20024;-60
2022/04/06 08:05:44;;;;;;;0.22;0.22;;;16.40;99.90;;;;;;5092719;28;20028;-60
2022/04/06 08:08:10;;;;;;;2.17;0.40;;;17.20;99.90;;;;;;5092524;28;20031;-63
2022/04/06 08:10:35;;;;;;;0.20;0.20;;;17.80;98.30;;;;;;5093302;28;20456;-60
2022/04/06 08:13:01;;;;;;;2.58;0.25;;;17.90;97.00;;;;;;5092290;28;20108;-61
2022/04/06 08:15:27;;;;;;;0.10;0.10;;;17.70;97.90;;;;;;5092349;28;20031;-62
2022/04/06 08:17:53;;;;;;;2.00;0.32;;;17.70;97.90;;;;;;5093602;28;20462;-61
2022/04/06 08:20:19;;;;;;;0.85;0.20;;;17.50;97.70;;;;;;5095517;28;20040;-60
2022/04/06 08:22:47;;;;;;;1.00;0.50;;;17.30;98.50;;;;;;5096622;28;20123;-60
2022/04/06 08:25:17;;;;;;;0.68;0.20;;;17.40;98.80;;;;;;5096415;28;20036;-61
2022/04/06 08:27:43;;;;;;;0.30;0.10;;;17.30;98.40;;;;;;5096370;28;20035;-62
2022/04/06 08:30:11;;;;;;;1.48;0.20;;;17.30;98.20;;;;;;5096680;28;20032;-61
2022/04/06 08:32:37;;;;;;;2.28;0.13;;;17.40;98.50;;;;;;5097390;28;20020;-60
2022/04/06 08:35:04;;;;;;;0.10;0.10;;;17.50;97.80;;;;;;5097702;28;20189;-61
2022/04/06 08:37:31;;;;;;;1.88;0.20;;;17.60;97.50;;;;;;5096200;28;20521;-61
2022/04/06 08:39:57;;;;;;;0.98;0.10;;;17.80;97.20;;;;;;5097544;28;20032;-61
2022/04/06 08:42:25;;;;;;;2.05;0.20;;;17.90;96.60;;;;;;5096715;28;20028;-61
2022/04/06 08:44:51;;;;;;;0.10;0.10;;;18.00;97.30;;;;;;5096082;28;20028;-61
2022/04/06 08:47:18;;;;;;;1.45;0.10;;;18.20;96.50;;;;;;5097401;28;20032;-61
2022/04/06 08:49:46;;;;;;;0.85;0.10;;;18.30;95.60;;;;;;5096077;28;20028;-61
2022/04/06 08:52:12;;;;;;;0.10;0.10;;;18.40;95.00;;;;;;5095981;28;20035;-61
2022/04/06 08:54:38;;;;;;;1.75;0.20;;;18.50;94.50;;;;;;5097281;28;20039;-61
2022/04/06 08:57:05;;;;;;;0.38;0.00;;;18.40;94.60;;;;;;5097231;28;20035;-60
2022/04/06 08:59:31;;;;;;;0.40;0.15;;;18.10;94.20;;;;;;5097191;28;20023;-61
2022/04/06 09:01:57;;;;;;;0.47;0.22;;;18.30;94.70;;;;;;5097193;28;20024;-60
2022/04/06 09:04:24;;;;;;;0.38;0.38;;;18.40;94.20;;;;;;5097031;28;20040;-61
2022/04/06 09:06:50;;;;;;;0.98;0.10;;;18.50;94.10;;;;;;5095685;28;20032;-62
2022/04/06 09:09:24;;;;;;;0.40;0.10;;;18.60;92.40;;;;;;5096727;28;20453;-63
2022/04/06 09:11:50;;;;;;;1.30;0.17;;;18.70;92.70;;;;;;5097065;28;20024;-63
2022/04/06 09:14:15;;;;;;;0.85;0.10;;;19.10;91.80;;;;;;5113085;28;20027;-60
2022/04/06 09:16:41;;;;;;;0.47;0.08;;;19.30;90.00;;;;;;5096607;28;20028;-60
2022/04/06 09:19:12;;;;;;;0.43;0.17;;;19.10;90.20;;;;;;5096686;28;20141;-63
2022/04/06 09:21:42;;;;;;;0.30;0.10;;;19.60;90.40;;;;;;5096156;28;20101;-62
2022/04/06 09:24:19;;;;;;;1.02;0.20;;;19.80;87.30;;;;;;5095616;28;20081;-62
2022/04/06 09:30:08;;;;;;;2.13;0.77;;;22.10;74.20;;;;;;5095852;28;20023;-63
2022/04/06 09:32:34;;;;;;;3.95;0.20;;;23.30;65.90;;;;;;5096347;28;20113;-63
2022/04/06 09:35:00;;;;;;;1.58;0.13;;;24.00;58.70;;;;;;5096238;28;20062;-62
2022/04/06 09:37:28;;;;;;;2.15;0.10;;;23.60;57.50;;;;;;5096466;28;20028;-63
2022/04/06 09:39:56;;;;;;;2.72;0.10;;;23.70;56.90;;;;;;5096460;28;20034;-62
2022/04/06 09:42:26;;;;;;;0.30;0.10;;;23.60;54.90;;;;;;5096444;28;20020;-63
2022/04/06 09:47:38;;;;;;;1.05;0.00;;;23.70;53.60;;;;;;5096249;28;20495;-62
2022/04/06 09:50:19;;;;;;;0.22;0.10;;;22.70;53.20;;;;;;5095133;28;20027;-62
2022/04/06 09:52:45;;;;;;;0.00;0.00;;;21.40;55.50;;;;;;5096473;28;20019;-62
2022/04/06 09:55:14;;;;;;;0.35;0.08;;;21.10;56.80;;;;;;5096162;28;20115;-62
2022/04/06 10:01:01;;;;;;;0.00;0.00;;;23.00;54.00;;;;;;5096079;28;20023;-63
2022/04/06 10:03:27;;;;;;;0.00;0.00;;;24.10;51.90;;;;;;5093786;28;20122;-63
2022/04/06 10:05:53;;;;;;;1.10;0.00;;;24.80;49.20;;;;;;5094271;28;20032;-63
2022/04/06 10:08:21;;;;;;;0.00;0.00;;;25.20;47.70;;;;;;5096060;28;20028;-62
2022/04/06 10:10:47;;;;;;;0.10;0.10;;;25.20;47.00;;;;;;5094252;28;20020;-63
2022/04/06 10:13:13;;;;;;;0.30;0.00;;;25.50;46.00;;;;;;5094455;28;20203;-62
2022/04/06 10:15:40;;;;;;;0.08;0.00;;;25.50;46.10;;;;;;5095651;28;20028;-63
2022/04/06 10:18:06;;;;;;;2.08;0.10;;;25.00;45.90;;;;;;5095605;28;20032;-63
2022/04/06 10:20:37;;;;;;;1.63;0.00;;;25.30;47.80;;;;;;5095682;28;20052;-63
2022/04/06 10:23:02;;;;;;;0.68;0.10;;;25.70;48.40;;;;;;5094502;28;20050;-63
2022/04/06 10:25:36;;;;;;;0.10;0.00;;;25.80;47.80;;;;;;5094058;28;20538;-63
2022/04/06 10:28:09;;;;;;;0.00;0.00;;;26.10;47.00;;;;;;5095603;28;20028;-63
2022/04/06 10:34:19;;;;;;;0.00;0.00;;;24.40;49.80;;;;;;5095269;28;20035;-63
2022/04/06 10:37:01;;;;;;;0.20;0.20;;;23.90;51.60;;;;;;5094069;28;20024;-63
2022/04/06 10:39:27;;;;;;;0.00;0.00;;;23.60;53.00;;;;;;5095540;28;20024;-63
2022/04/06 10:42:14;;;;;;;0.82;0.10;;;23.20;53.60;;;;;;5094893;28;20032;-62
2022/04/06 10:44:41;;;;;;;0.00;0.00;;;23.00;54.60;;;;;;5095136;28;20456;-63
2022/04/06 10:47:08;;;;;;;0.55;0.10;;;22.60;54.60;;;;;;5093903;28;20028;-62
2022/04/06 10:49:34;;;;;;;0.00;0.00;;;22.30;55.50;;;;;;5093903;28;20039;-63
2022/04/06 10:55:24;;;;;;;0.00;0.00;;;21.90;55.90;;;;;;5095136;28;20069;-63
2022/04/06 10:58:04;;;;;;;0.10;0.05;;;21.90;56.60;;;;;;5093479;28;20089;-62
2022/04/06 11:00:31;;;;;;;0.30;0.05;;;21.60;58.10;;;;;;5093773;28;20113;-62
2022/04/06 11:06:41;;;;;;;0.68;0.10;;;21.30;58.40;;;;;;5095190;28;20061;-62
2022/04/06 11:12:13;;;;;;;0.15;0.10;;;20.80;61.70;;;;;;5094653;28;20046;-63
2022/04/06 11:14:39;;;;;;;0.85;0.00;;;21.20;61.50;;;;;;5094714;28;20031;-63
2022/04/06 11:17:53;;;;;;;0.17;0.00;;;21.70;59.50;;;;;;5093291;28;20060;-63
2022/04/06 11:20:21;;;;;;;1.23;0.30;;;22.50;58.00;;;;;;5093972;28;20047;-63
2022/04/06 11:22:46;;;;;;;0.10;0.00;;;22.70;57.30;;;;;;5094644;28;20024;-63
2022/04/06 11:25:15;;;;;;;0.20;0.00;;;22.30;56.30;;;;;;5094573;28;20488;-62
2022/04/06 11:27:43;;;;;;;0.10;0.10;;;22.10;56.90;;;;;;5094510;28;20043;-62
2022/04/06 11:30:13;;;;;;;1.10;0.00;;;21.70;57.90;;;;;;5093439;28;20024;-62
2022/04/06 11:32:43;;;;;;;0.00;0.00;;;21.30;58.10;;;;;;5094557;28;20148;-62
2022/04/06 11:35:10;;;;;;;0.65;0.13;;;21.20;60.00;;;;;;5094434;28;20028;-62
2022/04/06 11:38:03;;;;;;;2.20;0.10;;;21.40;59.30;;;;;;5092987;28;20052;-62
2022/04/06 11:40:29;;;;;;;0.43;0.00;;;21.60;58.90;;;;;;5090665;28;20426;-62
2022/04/06 11:42:57;;;;;;;0.13;0.10;;;21.60;58.90;;;;;;5094233;28;20515;-62
2022/04/06 11:45:32;;;;;;;0.00;0.00;;;21.60;59.00;;;;;;5094267;28;20062;-62
2022/04/06 11:47:59;;;;;;;1.45;0.05;;;21.20;58.80;;;;;;5093996;28;20434;-62
2022/04/06 11:50:35;;;;;;;0.45;0.00;;;21.20;59.30;;;;;;5094047;28;20088;-62
2022/04/06 11:53:15;;;;;;;0.20;0.10;;;20.70;60.70;;;;;;5093763;28;20027;-62
2022/04/06 11:55:49;;;;;;;0.10;0.00;;;20.40;61.60;;;;;;5094127;28;20028;-60
2022/04/06 11:58:31;;;;;;;1.50;0.10;;;20.50;62.00;;;;;;5093983;28;20090;-62
